createdAt,value
2022-09-23T00:01:11.090Z,100688.69
2022-09-23T00:03:42.863Z,100688.81
2022-09-23T00:06:12.662Z,100697.31
2022-09-23T00:08:39.625Z,100694.78
2022-09-23T00:11:16.872Z,100690.97
2022-09-23T00:13:45.327Z,100684.22
2022-09-23T00:16:14.970Z,100679.47
2022-09-23T00:18:52.626Z,100678.63
2022-09-23T00:21:26.978Z,100676.91
2022-09-23T00:23:56.607Z,100676.66
2022-09-23T00:26:23.810Z,100672.31
2022-09-23T00:28:50.765Z,100672.03
2022-09-23T00:31:20.632Z,100673.59
2022-09-23T00:33:48.987Z,100670.41
2022-09-23T00:36:16.323Z,100673.69
2022-09-23T00:38:57.125Z,100666.19
2022-09-23T00:41:24.368Z,100669.25
2022-09-23T00:43:58.602Z,100668.69
2022-09-23T00:46:31.207Z,100668.03
2022-09-23T00:49:05.684Z,100658.34
2022-09-23T00:51:38.913Z,100658.94
2022-09-23T00:54:06.471Z,100659.66
2022-09-23T00:56:33.686Z,100656.06
2022-09-23T00:59:01.084Z,100658.72
2022-09-23T01:01:27.756Z,100660.44
2022-09-23T01:03:58.262Z,100652.63
2022-09-23T01:06:25.341Z,100651.53
2022-09-23T01:08:52.612Z,100647.78
2022-09-23T01:11:25.018Z,100646.28
2022-09-23T01:14:16.983Z,100644.19
2022-09-23T01:17:04.443Z,100644.00
2022-09-23T01:19:39.132Z,100630.19
2022-09-23T01:22:11.654Z,100633.94
2022-09-23T01:24:55.586Z,100637.44
2022-09-23T01:27:56.329Z,100632.78
2022-09-23T01:30:47.642Z,100631.97
2022-09-23T01:33:22.436Z,100625.38
2022-09-23T01:36:03.057Z,100628.16
2022-09-23T01:38:43.637Z,100623.59
2022-09-23T01:41:15.412Z,100627.56
2022-09-23T01:44:08.529Z,100616.09
2022-09-23T01:46:44.053Z,100619.78
2022-09-23T01:49:30.653Z,100618.84
2022-09-23T01:52:01.872Z,100617.84
2022-09-23T01:54:39.017Z,100611.28
2022-09-23T01:57:31.840Z,100618.63
2022-09-23T02:00:25.508Z,100611.75
2022-09-23T02:02:59.347Z,100614.09
2022-09-23T02:05:37.743Z,100612.53
2022-09-23T02:08:24.849Z,100610.50
2022-09-23T02:10:58.719Z,100608.47
2022-09-23T02:13:34.627Z,100606.19
2022-09-23T02:16:04.018Z,100607.44
2022-09-23T02:18:35.120Z,100603.59
2022-09-23T02:21:07.206Z,100615.56
2022-09-23T02:23:39.123Z,100607.97
2022-09-23T02:26:21.679Z,100606.06
2022-09-23T02:28:56.803Z,100603.59
2022-09-23T02:31:27.792Z,100599.94
2022-09-23T02:33:57.563Z,100596.00
2022-09-23T02:37:02.609Z,100599.16
2022-09-23T02:39:36.979Z,100593.38
2022-09-23T02:42:12.612Z,100586.81
2022-09-23T02:44:40.594Z,100591.50
2022-09-23T02:47:07.628Z,100598.63
2022-09-23T02:49:35.190Z,100599.63
2022-09-23T02:52:05.885Z,100597.34
2022-09-23T02:54:35.148Z,100593.06
2022-09-23T02:57:05.566Z,100598.78
2022-09-23T02:59:32.582Z,100593.16
2022-09-23T03:02:21.664Z,100594.22
2022-09-23T03:05:00.366Z,100589.75
2022-09-23T03:07:50.407Z,100579.97
2022-09-23T03:10:23.087Z,100579.66
2022-09-23T03:13:12.261Z,100579.56
2022-09-23T03:15:55.687Z,100584.28
2022-09-23T03:18:31.642Z,100580.16
2022-09-23T03:21:12.357Z,100565.44
2022-09-23T03:23:40.560Z,100571.81
2022-09-23T03:26:12.299Z,100574.16
2022-09-23T03:28:42.131Z,100574.72
2022-09-23T03:31:09.063Z,100564.03
2022-09-23T03:33:37.293Z,100562.31
2022-09-23T03:36:28.079Z,100550.06
2022-09-23T03:39:07.296Z,100556.19
2022-09-23T03:41:43.720Z,100555.66
2022-09-23T03:44:10.597Z,100555.66
2022-09-23T03:46:37.332Z,100553.16
2022-09-23T03:49:16.249Z,100561.94
2022-09-23T03:51:44.779Z,100554.31
2022-09-23T03:54:11.840Z,100544.03
2022-09-23T03:56:38.409Z,100555.38
2022-09-23T03:59:05.070Z,100539.06
2022-09-23T04:01:34.284Z,100535.94
2022-09-23T04:04:01.151Z,100545.44
2022-09-23T04:06:27.783Z,100535.06
2022-09-23T04:08:54.390Z,100535.97
2022-09-23T04:11:21.031Z,100537.09
2022-09-23T04:13:49.800Z,100529.25
2022-09-23T04:16:16.586Z,100527.56
2022-09-23T04:18:43.275Z,100527.72
2022-09-23T04:21:09.835Z,100520.34
2022-09-23T04:23:36.504Z,100514.81
2022-09-23T04:26:05.362Z,100519.72
2022-09-23T04:28:34.690Z,100517.53
2022-09-23T04:31:09.525Z,100516.00
2022-09-23T04:33:38.127Z,100519.06
2022-09-23T04:36:04.851Z,100519.03
2022-09-23T04:38:31.723Z,100515.63
2022-09-23T04:40:58.817Z,100510.91
2022-09-23T04:43:25.457Z,100511.94
2022-09-23T04:46:02.689Z,100504.69
2022-09-23T04:48:29.341Z,100518.69
2022-09-23T04:51:28.322Z,100509.41
2022-09-23T04:53:55.802Z,100506.59
2022-09-23T04:56:24.907Z,100504.50
2022-09-23T04:58:51.552Z,100515.13
2022-09-23T05:01:26.837Z,100516.59
2022-09-23T05:04:01.824Z,100509.59
2022-09-23T05:06:29.970Z,100512.19
2022-09-23T05:08:58.079Z,100505.78
2022-09-23T05:11:25.780Z,100505.16
2022-09-23T05:13:53.745Z,100511.81
2022-09-23T05:16:23.019Z,100502.50
2022-09-23T05:18:50.631Z,100505.41
2022-09-23T05:21:21.755Z,100505.00
2022-09-23T05:24:00.442Z,100512.31
2022-09-23T05:26:29.262Z,100507.06
2022-09-23T05:28:56.403Z,100514.56
2022-09-23T05:31:24.794Z,100496.00
2022-09-23T05:33:55.754Z,100497.25
2022-09-23T05:36:23.327Z,100501.50
2022-09-23T05:38:50.817Z,100504.00
2022-09-23T05:41:19.271Z,100497.94
2022-09-23T05:43:45.977Z,100489.50
2022-09-23T05:46:14.928Z,100498.38
2022-09-23T05:48:42.836Z,100488.38
2022-09-23T05:51:12.789Z,100493.53
2022-09-23T05:53:40.707Z,100482.56
2022-09-23T05:56:07.791Z,100492.50
2022-09-23T05:58:34.710Z,100494.84
2022-09-23T06:01:01.371Z,100489.59
2022-09-23T06:03:28.077Z,100485.94
2022-09-23T06:05:55.794Z,100489.09
2022-09-23T06:08:23.647Z,100482.31
2022-09-23T06:10:54.365Z,100482.25
2022-09-23T06:13:22.711Z,100473.75
2022-09-23T06:15:49.287Z,100482.97
2022-09-23T06:18:17.214Z,100471.34
2022-09-23T06:20:43.792Z,100481.63
2022-09-23T06:23:11.505Z,100474.88
2022-09-23T06:25:40.931Z,100479.19
2022-09-23T06:28:10.806Z,100473.53
2022-09-23T06:30:37.635Z,100472.38
2022-09-23T06:33:04.306Z,100469.75
2022-09-23T06:35:33.227Z,100464.69
2022-09-23T06:38:05.357Z,100473.06
2022-09-23T06:40:32.573Z,100469.25
2022-09-23T06:43:00.339Z,100471.81
2022-09-23T06:45:27.745Z,100466.50
2022-09-23T06:47:58.201Z,100472.50
2022-09-23T06:50:26.509Z,100460.34
2022-09-23T06:52:56.251Z,100469.59
2022-09-23T06:55:27.202Z,100465.06
2022-09-23T06:58:02.921Z,100465.41
2022-09-23T07:00:29.540Z,100462.03
2022-09-23T07:02:57.018Z,100459.09
2022-09-23T07:05:23.743Z,100457.91
2022-09-23T07:07:50.368Z,100456.63
2022-09-23T07:10:17.030Z,100449.38
2022-09-23T07:12:43.685Z,100450.63
2022-09-23T07:15:11.246Z,100452.69
2022-09-23T07:17:43.617Z,100453.94
2022-09-23T07:20:11.466Z,100450.44
2022-09-23T07:22:38.412Z,100445.34
2022-09-23T07:25:08.060Z,100458.16
2022-09-23T07:27:34.796Z,100448.16
2022-09-23T07:30:01.718Z,100449.84
2022-09-23T07:32:31.700Z,100456.47
2022-09-23T07:34:59.824Z,100452.19
2022-09-23T07:37:26.473Z,100450.56
2022-09-23T07:39:56.103Z,100458.16
2022-09-23T07:42:22.782Z,100443.50
2022-09-23T07:44:49.664Z,100453.41
2022-09-23T07:47:17.221Z,100456.41
2022-09-23T07:49:48.608Z,100454.53
2022-09-23T07:52:15.195Z,100454.09
2022-09-23T07:54:41.805Z,100446.88
2022-09-23T07:57:08.364Z,100447.06
2022-09-23T07:59:35.135Z,100450.09
2022-09-23T08:02:01.857Z,100454.63
2022-09-23T08:04:30.853Z,100446.44
2022-09-23T08:06:59.891Z,100453.56
2022-09-23T08:09:29.482Z,100450.13
2022-09-23T08:11:56.182Z,100447.41
2022-09-23T08:14:22.976Z,100451.81
2022-09-23T08:16:50.212Z,100451.94
2022-09-23T08:19:17.117Z,100448.34
2022-09-23T08:21:46.188Z,100450.81
2022-09-23T08:24:21.819Z,100455.47
2022-09-23T08:26:49.144Z,100450.91
2022-09-23T08:29:17.691Z,100449.25
2022-09-23T08:31:44.567Z,100441.00
2022-09-23T08:34:13.680Z,100440.31
2022-09-23T08:36:40.436Z,100441.09
2022-09-23T08:39:07.253Z,100440.06
2022-09-23T08:41:43.770Z,100443.75
2022-09-23T08:44:13.974Z,100439.91
2022-09-23T08:46:47.819Z,100454.09
2022-09-23T08:49:21.603Z,100446.06
2022-09-23T08:51:48.524Z,100454.88
2022-09-23T08:54:16.580Z,100446.59
2022-09-23T08:56:44.945Z,100450.88
2022-09-23T08:59:22.909Z,100448.75
2022-09-23T09:01:53.336Z,100454.06
2022-09-23T09:04:27.912Z,100449.53
2022-09-23T09:07:31.741Z,100443.09
2022-09-23T09:10:06.127Z,100449.13
2022-09-23T09:12:41.596Z,100447.91
2022-09-23T09:15:19.528Z,100438.03
2022-09-23T09:18:07.694Z,100443.25
2022-09-23T09:21:00.636Z,100436.28
2022-09-23T09:23:55.877Z,100434.66
2022-09-23T09:26:28.484Z,100421.41
2022-09-23T09:29:23.325Z,100423.66
2022-09-23T09:31:50.597Z,100418.13
2022-09-23T09:34:20.206Z,100414.66
2022-09-23T09:36:53.408Z,100416.97
2022-09-23T09:39:24.106Z,100416.44
2022-09-23T09:41:52.862Z,100412.25
2022-09-23T09:44:24.161Z,100403.09
2022-09-23T09:46:57.566Z,100398.28
2022-09-23T09:49:50.428Z,100395.19
2022-09-23T09:52:20.235Z,100399.06
2022-09-23T09:54:51.579Z,100395.25
2022-09-23T09:57:37.315Z,100376.91
2022-09-23T10:00:30.366Z,100374.78
2022-09-23T10:03:14.866Z,100369.97
2022-09-23T10:05:47.388Z,100370.53
2022-09-23T10:08:37.890Z,100372.63
2022-09-23T10:11:10.469Z,100374.13
2022-09-23T10:13:37.925Z,100374.88
2022-09-23T10:16:05.124Z,100371.75
2022-09-23T10:18:37.371Z,100362.19
2022-09-23T10:21:08.084Z,100364.59
2022-09-23T10:23:39.578Z,100365.94
2022-09-23T10:26:08.159Z,100360.06
2022-09-23T10:28:48.568Z,100360.38
2022-09-23T10:31:26.084Z,100355.94
2022-09-23T10:33:54.805Z,100361.59
2022-09-23T10:36:21.881Z,100365.53
2022-09-23T10:38:52.786Z,100351.00
2022-09-23T10:41:57.862Z,100350.44
2022-09-23T10:45:17.290Z,100340.41
2022-09-23T10:47:51.157Z,100343.09
2022-09-23T10:50:39.161Z,100336.53
2022-09-23T10:53:08.802Z,100335.97
2022-09-23T10:55:41.710Z,100334.81
2022-09-23T10:58:19.639Z,100339.19
2022-09-23T11:01:05.569Z,100344.34
2022-09-23T11:03:41.849Z,100331.50
2022-09-23T11:06:25.076Z,100332.19
2022-09-23T11:09:22.752Z,100331.09
2022-09-23T11:12:18.144Z,100329.81
2022-09-23T11:15:18.837Z,100328.78
2022-09-23T11:18:08.544Z,100322.50
2022-09-23T11:20:52.401Z,100323.88
2022-09-23T11:23:28.276Z,100320.41
2022-09-23T11:26:33.358Z,100316.88
2022-09-23T11:29:13.529Z,100319.72
2022-09-23T11:31:43.184Z,100316.94
2022-09-23T11:34:34.657Z,100310.13
2022-09-23T11:37:09.422Z,100306.34
2022-09-23T11:40:03.586Z,100302.69
2022-09-23T11:42:36.586Z,100296.06
2022-09-23T11:45:19.507Z,100291.59
2022-09-23T11:47:51.879Z,100288.19
2022-09-23T11:50:40.887Z,100278.78
2022-09-23T11:53:21.429Z,100284.25
2022-09-23T11:55:57.992Z,100284.03
2022-09-23T11:58:31.596Z,100281.34
2022-09-23T12:01:07.587Z,100277.53
2022-09-23T12:04:15.227Z,100281.66
2022-09-23T12:07:18.975Z,100276.53
2022-09-23T12:10:03.513Z,100269.31
2022-09-23T12:12:35.993Z,100266.75
2022-09-23T12:15:10.451Z,100265.53
2022-09-23T12:17:52.315Z,100271.44
2022-09-23T12:20:42.194Z,100264.59
2022-09-23T12:23:13.277Z,100268.84
2022-09-23T12:26:01.783Z,100270.22
2022-09-23T12:28:49.812Z,100268.03
2022-09-23T12:31:18.843Z,100261.53
2022-09-23T12:33:50.014Z,100255.84
2022-09-23T12:36:17.651Z,100256.06
2022-09-23T12:38:54.653Z,100255.44
2022-09-23T12:41:27.952Z,100260.56
2022-09-23T12:44:23.251Z,100247.91
2022-09-23T12:47:15.355Z,100234.63
2022-09-23T12:49:43.179Z,100233.41
2022-09-23T12:52:12.766Z,100238.50
2022-09-23T12:54:40.507Z,100234.78
2022-09-23T12:57:12.375Z,100235.09
2022-09-23T12:59:51.180Z,100241.84
2022-09-23T13:02:27.881Z,100232.69
2022-09-23T13:05:26.784Z,100229.44
2022-09-23T13:07:59.617Z,100233.31
2022-09-23T13:10:30.432Z,100227.63
2022-09-23T13:13:00.407Z,100230.13
2022-09-23T13:15:33.107Z,100232.19
2022-09-23T13:18:18.429Z,100230.00
2022-09-23T13:20:46.986Z,100235.34
2022-09-23T13:23:22.823Z,100231.00
2022-09-23T13:25:51.588Z,100229.56
2022-09-23T13:28:54.606Z,100220.47
2022-09-23T13:31:21.559Z,100220.72
2022-09-23T13:33:54.567Z,100218.06
2022-09-23T13:36:23.251Z,100217.25
2022-09-23T13:38:49.818Z,100211.28
2022-09-23T13:41:22.520Z,100211.81
2022-09-23T13:43:55.940Z,100214.69
2022-09-23T13:46:27.821Z,100213.44
2022-09-23T13:48:57.384Z,100218.09
2022-09-23T13:51:31.808Z,100217.03
2022-09-23T13:54:03.408Z,100210.56
2022-09-23T13:56:32.404Z,100220.66
2022-09-23T13:59:26.513Z,100220.88
2022-09-23T14:02:11.547Z,100212.94
2022-09-23T14:04:38.745Z,100203.91
2022-09-23T14:07:07.350Z,100203.84
2022-09-23T14:09:35.535Z,100208.72
2022-09-23T14:12:04.885Z,100199.59
2022-09-23T14:14:31.853Z,100196.44
2022-09-23T14:16:58.648Z,100196.81
2022-09-23T14:19:25.848Z,100203.84
2022-09-23T14:22:00.804Z,100202.50
2022-09-23T14:24:34.939Z,100193.25
2022-09-23T14:27:07.726Z,100195.56
2022-09-23T14:29:37.143Z,100196.69
2022-09-23T14:32:06.521Z,100198.72
2022-09-23T14:34:51.475Z,100194.56
2022-09-23T14:37:36.693Z,100184.53
2022-09-23T14:40:20.542Z,100177.44
2022-09-23T14:43:15.723Z,100174.22
2022-09-23T14:45:46.367Z,100181.13
2022-09-23T14:48:16.816Z,100180.13
2022-09-23T14:50:49.167Z,100174.78
2022-09-23T14:53:23.551Z,100176.59
2022-09-23T14:56:08.629Z,100180.25
2022-09-23T14:58:42.742Z,100187.16
2022-09-23T15:01:31.886Z,100186.38
2022-09-23T15:04:21.871Z,100188.34
2022-09-23T15:06:52.576Z,100186.59
2022-09-23T15:09:38.939Z,100183.66
2022-09-23T15:12:10.760Z,100179.66
2022-09-23T15:14:41.156Z,100174.34
2022-09-23T15:17:23.683Z,100164.16
2022-09-23T15:19:59.744Z,100162.53
2022-09-23T15:22:26.851Z,100161.81
2022-09-23T15:24:54.768Z,100163.09
2022-09-23T15:27:28.681Z,100153.75
2022-09-23T15:29:56.546Z,100166.28
2022-09-23T15:32:27.922Z,100171.81
2022-09-23T15:34:54.531Z,100180.88
2022-09-23T15:37:21.163Z,100175.88
2022-09-23T15:39:49.093Z,100174.06
2022-09-23T15:42:18.181Z,100176.94
2022-09-23T15:44:49.467Z,100172.09
2022-09-23T15:47:27.899Z,100177.34
2022-09-23T15:49:54.576Z,100182.91
2022-09-23T15:52:22.805Z,100182.63
2022-09-23T15:54:49.465Z,100187.53
2022-09-23T15:57:16.115Z,100191.78
2022-09-23T15:59:50.602Z,100185.44
2022-09-23T16:02:29.210Z,100189.94
2022-09-23T16:04:57.189Z,100188.66
2022-09-23T16:07:24.135Z,100191.84
2022-09-23T16:09:50.711Z,100188.56
2022-09-23T16:12:17.639Z,100184.59
2022-09-23T16:14:47.313Z,100189.09
2022-09-23T16:17:16.680Z,100188.63
2022-09-23T16:19:58.173Z,100186.06
2022-09-23T16:22:24.834Z,100178.88
2022-09-23T16:24:51.450Z,100183.84
2022-09-23T16:27:18.834Z,100171.41
2022-09-23T16:29:48.633Z,100174.56
2022-09-23T16:32:18.904Z,100169.44
2022-09-23T16:34:48.247Z,100169.44
2022-09-23T16:37:18.564Z,100163.09
2022-09-23T16:39:45.269Z,100164.03
2022-09-23T16:42:16.591Z,100159.81
2022-09-23T16:44:43.289Z,100167.09
2022-09-23T16:47:19.829Z,100166.38
2022-09-23T16:49:46.503Z,100168.84
2022-09-23T16:52:24.524Z,100169.53
2022-09-23T16:54:51.220Z,100167.41
2022-09-23T16:57:18.025Z,100168.56
2022-09-23T17:00:03.344Z,100173.13
2022-09-23T17:02:48.632Z,100167.47
2022-09-23T17:05:20.301Z,100173.78
2022-09-23T17:07:47.587Z,100176.94
2022-09-23T17:10:18.583Z,100172.59
2022-09-23T17:12:45.235Z,100170.00
2022-09-23T17:15:14.291Z,100172.31
2022-09-23T17:17:40.961Z,100163.19
2022-09-23T17:20:07.945Z,100162.59
2022-09-23T17:22:34.609Z,100166.31
2022-09-23T17:25:08.101Z,100164.78
2022-09-23T17:27:35.194Z,100166.28
2022-09-23T17:30:01.775Z,100164.50
2022-09-23T17:32:28.399Z,100165.78
2022-09-23T17:34:55.017Z,100168.66
2022-09-23T17:37:22.929Z,100167.34
2022-09-23T17:39:52.441Z,100165.00
2022-09-23T17:42:19.356Z,100163.94
2022-09-23T17:44:48.236Z,100171.50
2022-09-23T17:47:19.774Z,100166.75
2022-09-23T17:49:49.596Z,100160.53
2022-09-23T17:52:17.245Z,100164.03
2022-09-23T17:54:45.174Z,100163.72
2022-09-23T17:57:16.356Z,100152.59
2022-09-23T17:59:46.005Z,100151.69
2022-09-23T18:02:15.856Z,100152.38
2022-09-23T18:04:51.575Z,100156.63
2022-09-23T18:07:18.190Z,100157.31
2022-09-23T18:09:47.622Z,100166.06
2022-09-23T18:12:21.816Z,100154.75
2022-09-23T18:14:48.562Z,100155.53
2022-09-23T18:17:15.516Z,100147.91
2022-09-23T18:19:42.650Z,100148.09
2022-09-23T18:22:09.259Z,100156.63
2022-09-23T18:24:41.071Z,100146.84
2022-09-23T18:27:08.234Z,100151.00
2022-09-23T18:29:35.138Z,100159.41
2022-09-23T18:32:05.910Z,100165.69
2022-09-23T18:34:32.598Z,100156.25
2022-09-23T18:36:59.276Z,100160.00
2022-09-23T18:39:25.934Z,100162.78
2022-09-23T18:41:52.581Z,100166.38
2022-09-23T18:44:24.351Z,100166.97
2022-09-23T18:46:50.977Z,100163.44
2022-09-23T18:49:36.178Z,100160.75
2022-09-23T18:52:02.797Z,100164.56
2022-09-23T18:54:29.508Z,100162.22
2022-09-23T18:56:56.624Z,100163.38
2022-09-23T18:59:26.365Z,100169.22
2022-09-23T19:01:55.988Z,100167.56
2022-09-23T19:04:24.582Z,100178.63
2022-09-23T19:06:51.607Z,100169.56
2022-09-23T19:09:18.673Z,100177.03
2022-09-23T19:11:45.918Z,100172.13
2022-09-23T19:14:12.979Z,100175.63
2022-09-23T19:16:40.683Z,100164.88
2022-09-23T19:19:08.000Z,100168.97
2022-09-23T19:21:34.752Z,100162.56
2022-09-23T19:24:06.956Z,100161.94
2022-09-23T19:26:37.420Z,100163.59
2022-09-23T19:29:05.239Z,100161.94
2022-09-23T19:31:41.121Z,100161.34
2022-09-23T19:34:18.149Z,100160.38
2022-09-23T19:36:46.446Z,100154.34
2022-09-23T19:39:20.879Z,100153.13
2022-09-23T19:41:48.409Z,100155.16
2022-09-23T19:44:16.451Z,100150.59
2022-09-23T19:46:45.316Z,100150.59
2022-09-23T19:49:12.407Z,100148.94
2022-09-23T19:51:39.711Z,100150.00
2022-09-23T19:54:09.879Z,100146.91
2022-09-23T19:56:36.744Z,100142.00
2022-09-23T19:59:05.794Z,100140.34
2022-09-23T20:01:35.920Z,100148.41
2022-09-23T20:04:02.675Z,100146.56
2022-09-23T20:06:30.873Z,100140.06
2022-09-23T20:09:01.088Z,100145.88
2022-09-23T20:11:28.818Z,100148.81
2022-09-23T20:14:01.665Z,100151.25
2022-09-23T20:16:31.831Z,100150.66
2022-09-23T20:18:59.837Z,100147.75
2022-09-23T20:21:28.187Z,100148.56
2022-09-23T20:23:55.150Z,100147.75
2022-09-23T20:26:40.085Z,100149.00
2022-09-23T20:29:06.712Z,100138.69
2022-09-23T20:31:34.414Z,100150.59
2022-09-23T20:34:05.391Z,100148.94
2022-09-23T20:36:33.252Z,100144.03
2022-09-23T20:39:01.837Z,100150.66
2022-09-23T20:41:29.763Z,100144.47
2022-09-23T20:44:00.834Z,100149.25
2022-09-23T20:46:28.587Z,100153.56
2022-09-23T20:48:56.590Z,100148.66
2022-09-23T20:51:33.397Z,100151.53
2022-09-23T20:54:00.502Z,100153.41
2022-09-23T20:56:27.522Z,100144.97
2022-09-23T20:58:54.136Z,100149.53
2022-09-23T21:01:21.262Z,100144.16
2022-09-23T21:03:50.105Z,100149.97
2022-09-23T21:06:18.689Z,100152.66
2022-09-23T21:08:45.768Z,100144.34
2022-09-23T21:11:15.058Z,100150.78
2022-09-23T21:13:48.121Z,100152.66
2022-09-23T21:16:16.164Z,100151.63
2022-09-23T21:18:43.124Z,100135.50
2022-09-23T21:21:10.619Z,100145.56
2022-09-23T21:23:38.381Z,100137.06
2022-09-23T21:26:04.928Z,100141.81
2022-09-23T21:28:33.173Z,100138.25
2022-09-23T21:31:01.411Z,100144.91
2022-09-23T21:33:28.349Z,100144.31
2022-09-23T21:35:56.231Z,100135.41
2022-09-23T21:38:23.839Z,100144.31
2022-09-23T21:40:58.473Z,100141.81
2022-09-23T21:43:32.369Z,100137.66
2022-09-23T21:46:02.224Z,100137.66
2022-09-23T21:48:30.331Z,100138.25
2022-09-23T21:51:04.871Z,100142.38
2022-09-23T21:53:33.013Z,100138.63
2022-09-23T21:56:08.915Z,100144.81
2022-09-23T21:58:36.888Z,100137.81
2022-09-23T22:01:15.502Z,100141.31
2022-09-23T22:03:45.636Z,100137.00
2022-09-23T22:06:14.453Z,100133.25
2022-09-23T22:08:44.559Z,100136.56
2022-09-23T22:11:31.781Z,100136.75
2022-09-23T22:13:59.694Z,100139.44
2022-09-23T22:16:29.403Z,100148.56
2022-09-23T22:19:01.035Z,100140.72
2022-09-23T22:21:29.924Z,100140.72
2022-09-23T22:24:03.660Z,100141.97
2022-09-23T22:26:36.404Z,100138.50
2022-09-23T22:29:22.070Z,100132.28
2022-09-23T22:32:07.313Z,100131.22
2022-09-23T22:34:51.069Z,100125.41
2022-09-23T22:37:20.818Z,100130.72
2022-09-23T22:39:53.573Z,100122.50
2022-09-23T22:42:23.718Z,100126.69
2022-09-23T22:44:50.702Z,100125.69
2022-09-23T22:47:18.012Z,100132.50
2022-09-23T22:49:46.227Z,100132.50
2022-09-23T22:52:14.866Z,100135.19
2022-09-23T22:54:41.982Z,100130.03
2022-09-23T22:57:09.128Z,100134.59
2022-09-23T22:59:36.883Z,100139.97
2022-09-23T23:02:03.637Z,100145.19
2022-09-23T23:04:31.005Z,100139.00
2022-09-23T23:07:00.890Z,100136.28
2022-09-23T23:09:27.529Z,100145.84
2022-09-23T23:11:54.095Z,100142.31
2022-09-23T23:14:23.654Z,100141.53
2022-09-23T23:16:50.651Z,100141.38
2022-09-23T23:19:19.197Z,100141.56
2022-09-23T23:21:46.247Z,100138.44
2022-09-23T23:24:21.086Z,100136.34
2022-09-23T23:26:48.141Z,100137.25
2022-09-23T23:29:16.718Z,100147.00
2022-09-23T23:31:43.490Z,100131.50
2022-09-23T23:34:18.469Z,100135.19
2022-09-23T23:36:45.835Z,100137.88
2022-09-23T23:39:15.699Z,100133.09
2022-09-23T23:41:42.506Z,100133.09
2022-09-23T23:44:11.509Z,100120.47
2022-09-23T23:46:38.170Z,100126.09
2022-09-23T23:49:12.976Z,100119.06
2022-09-23T23:51:41.977Z,100115.53
2022-09-23T23:54:12.630Z,100108.31
2022-09-23T23:56:46.814Z,100108.53
2022-09-23T23:59:13.489Z,100109.56
